sensor_id;sensor_type;location;lat;lon;timestamp;P1;durP1;ratioP1;P2;durP2;ratioP2
3006;SDS011;1513;47.650;10.720;2023-03-25T00:00:07;2.60;;;1.20;;
3006;SDS011;1513;47.650;10.720;2023-03-25T00:02:39;3.03;;;0.90;;
3006;SDS011;1513;47.650;10.720;2023-03-25T00:05:06;2.93;;;0.90;;
3006;SDS011;1513;47.650;10.720;2023-03-25T00:07:34;0.90;;;0.73;;
3006;SDS011;1513;47.650;10.720;2023-03-25T00:10:01;1.20;;;0.60;;
3006;SDS011;1513;47.650;10.720;2023-03-25T00:12:27;2.23;;;0.70;;
3006;SDS011;1513;47.650;10.720;2023-03-25T00:14:54;2.20;;;0.80;;
3006;SDS011;1513;47.650;10.720;2023-03-25T00:17:23;2.43;;;1.27;;
3006;SDS011;1513;47.650;10.720;2023-03-25T00:19:56;0.63;;;0.53;;
3006;SDS011;1513;47.650;10.720;2023-03-25T00:22:25;2.10;;;0.73;;
3006;SDS011;1513;47.650;10.720;2023-03-25T00:24:51;1.10;;;0.83;;
3006;SDS011;1513;47.650;10.720;2023-03-25T00:27:18;3.43;;;0.80;;
3006;SDS011;1513;47.650;10.720;2023-03-25T00:29:44;5.10;;;0.97;;
3006;SDS011;1513;47.650;10.720;2023-03-25T00:32:11;2.37;;;0.70;;
3006;SDS011;1513;47.650;10.720;2023-03-25T00:34:39;3.27;;;1.00;;
3006;SDS011;1513;47.650;10.720;2023-03-25T00:37:11;3.03;;;0.90;;
3006;SDS011;1513;47.650;10.720;2023-03-25T00:39:42;0.97;;;0.67;;
3006;SDS011;1513;47.650;10.720;2023-03-25T00:42:09;3.70;;;1.10;;
3006;SDS011;1513;47.650;10.720;2023-03-25T00:44:38;1.53;;;0.80;;
3006;SDS011;1513;47.650;10.720;2023-03-25T00:47:05;3.00;;;1.10;;
3006;SDS011;1513;47.650;10.720;2023-03-25T00:49:31;8.10;;;1.10;;
3006;SDS011;1513;47.650;10.720;2023-03-25T00:51:57;3.30;;;1.00;;
3006;SDS011;1513;47.650;10.720;2023-03-25T00:54:24;3.00;;;1.73;;
3006;SDS011;1513;47.650;10.720;2023-03-25T00:56:51;2.40;;;0.70;;
3006;SDS011;1513;47.650;10.720;2023-03-25T00:59:17;3.50;;;0.90;;
3006;SDS011;1513;47.650;10.720;2023-03-25T01:01:44;2.90;;;1.47;;
3006;SDS011;1513;47.650;10.720;2023-03-25T01:04:10;1.30;;;1.10;;
3006;SDS011;1513;47.650;10.720;2023-03-25T01:06:38;3.20;;;0.80;;
3006;SDS011;1513;47.650;10.720;2023-03-25T01:09:11;2.93;;;1.97;;
3006;SDS011;1513;47.650;10.720;2023-03-25T01:11:40;2.60;;;1.20;;
3006;SDS011;1513;47.650;10.720;2023-03-25T01:14:10;2.80;;;1.17;;
3006;SDS011;1513;47.650;10.720;2023-03-25T01:16:39;1.00;;;0.90;;
3006;SDS011;1513;47.650;10.720;2023-03-25T01:19:05;1.10;;;1.10;;
3006;SDS011;1513;47.650;10.720;2023-03-25T01:21:32;2.40;;;1.17;;
3006;SDS011;1513;47.650;10.720;2023-03-25T01:24:00;2.73;;;1.17;;
3006;SDS011;1513;47.650;10.720;2023-03-25T01:26:29;1.90;;;0.87;;
3006;SDS011;1513;47.650;10.720;2023-03-25T01:28:56;1.67;;;0.80;;
3006;SDS011;1513;47.650;10.720;2023-03-25T01:31:23;1.73;;;0.87;;
3006;SDS011;1513;47.650;10.720;2023-03-25T01:33:55;1.17;;;1.00;;
3006;SDS011;1513;47.650;10.720;2023-03-25T01:36:22;2.43;;;1.20;;
3006;SDS011;1513;47.650;10.720;2023-03-25T01:38:49;3.73;;;1.33;;
3006;SDS011;1513;47.650;10.720;2023-03-25T01:41:16;1.90;;;1.20;;
3006;SDS011;1513;47.650;10.720;2023-03-25T01:43:58;3.40;;;0.93;;
3006;SDS011;1513;47.650;10.720;2023-03-25T01:46:33;6.93;;;1.30;;
3006;SDS011;1513;47.650;10.720;2023-03-25T01:49:00;6.23;;;1.13;;
3006;SDS011;1513;47.650;10.720;2023-03-25T01:51:29;2.27;;;0.83;;
3006;SDS011;1513;47.650;10.720;2023-03-25T01:53:59;1.07;;;1.00;;
3006;SDS011;1513;47.650;10.720;2023-03-25T01:56:26;1.73;;;0.90;;
3006;SDS011;1513;47.650;10.720;2023-03-25T01:58:56;3.13;;;1.70;;
3006;SDS011;1513;47.650;10.720;2023-03-25T02:01:25;4.13;;;0.87;;
3006;SDS011;1513;47.650;10.720;2023-03-25T02:03:51;1.73;;;0.70;;
3006;SDS011;1513;47.650;10.720;2023-03-25T02:06:23;0.80;;;0.73;;
3006;SDS011;1513;47.650;10.720;2023-03-25T02:08:56;6.30;;;1.50;;
3006;SDS011;1513;47.650;10.720;2023-03-25T02:11:23;2.67;;;0.90;;
3006;SDS011;1513;47.650;10.720;2023-03-25T02:13:54;1.93;;;0.70;;
3006;SDS011;1513;47.650;10.720;2023-03-25T02:16:26;4.80;;;1.17;;
3006;SDS011;1513;47.650;10.720;2023-03-25T02:27:22;1.47;;;0.90;;
3006;SDS011;1513;47.650;10.720;2023-03-25T02:30:19;2.50;;;0.73;;
3006;SDS011;1513;47.650;10.720;2023-03-25T02:38:57;1.27;;;0.70;;
3006;SDS011;1513;47.650;10.720;2023-03-25T02:44:35;0.50;;;0.50;;
3006;SDS011;1513;47.650;10.720;2023-03-25T02:47:08;0.70;;;0.70;;
3006;SDS011;1513;47.650;10.720;2023-03-25T02:49:38;0.70;;;0.50;;
3006;SDS011;1513;47.650;10.720;2023-03-25T02:52:11;0.70;;;0.53;;
3006;SDS011;1513;47.650;10.720;2023-03-25T02:54:44;0.50;;;0.30;;
3006;SDS011;1513;47.650;10.720;2023-03-25T02:57:13;2.10;;;0.50;;
3006;SDS011;1513;47.650;10.720;2023-03-25T02:59:43;1.70;;;1.10;;
3006;SDS011;1513;47.650;10.720;2023-03-25T03:02:13;1.63;;;1.00;;
3006;SDS011;1513;47.650;10.720;2023-03-25T03:04:44;3.27;;;0.40;;
3006;SDS011;1513;47.650;10.720;2023-03-25T03:09:55;2.87;;;1.17;;
3006;SDS011;1513;47.650;10.720;2023-03-25T03:12:35;0.40;;;0.40;;
3006;SDS011;1513;47.650;10.720;2023-03-25T03:18:54;1.63;;;0.40;;
3006;SDS011;1513;47.650;10.720;2023-03-25T03:21:19;1.37;;;0.60;;
3006;SDS011;1513;47.650;10.720;2023-03-25T03:26:58;0.50;;;0.50;;
3006;SDS011;1513;47.650;10.720;2023-03-25T03:29:36;1.00;;;0.60;;
3006;SDS011;1513;47.650;10.720;2023-03-25T03:32:08;4.60;;;0.60;;
3006;SDS011;1513;47.650;10.720;2023-03-25T03:34:53;2.43;;;0.50;;
3006;SDS011;1513;47.650;10.720;2023-03-25T03:37:50;1.83;;;0.70;;
3006;SDS011;1513;47.650;10.720;2023-03-25T03:40:17;1.10;;;0.70;;
3006;SDS011;1513;47.650;10.720;2023-03-25T03:42:47;5.30;;;0.70;;
3006;SDS011;1513;47.650;10.720;2023-03-25T03:46:05;1.67;;;0.80;;
3006;SDS011;1513;47.650;10.720;2023-03-25T03:48:21;1.47;;;0.50;;
3006;SDS011;1513;47.650;10.720;2023-03-25T03:51:52;1.90;;;0.53;;
3006;SDS011;1513;47.650;10.720;2023-03-25T03:54:02;2.10;;;0.40;;
3006;SDS011;1513;47.650;10.720;2023-03-25T03:56:40;4.83;;;1.00;;
3006;SDS011;1513;47.650;10.720;2023-03-25T03:59:23;2.30;;;0.57;;
3006;SDS011;1513;47.650;10.720;2023-03-25T04:02:29;2.87;;;0.70;;
3006;SDS011;1513;47.650;10.720;2023-03-25T04:04:56;3.03;;;0.67;;
3006;SDS011;1513;47.650;10.720;2023-03-25T04:13:18;1.13;;;0.50;;
3006;SDS011;1513;47.650;10.720;2023-03-25T04:15:45;1.53;;;0.50;;
3006;SDS011;1513;47.650;10.720;2023-03-25T04:18:11;1.07;;;0.40;;
3006;SDS011;1513;47.650;10.720;2023-03-25T04:20:38;2.63;;;0.73;;
3006;SDS011;1513;47.650;10.720;2023-03-25T04:23:09;0.40;;;0.30;;
3006;SDS011;1513;47.650;10.720;2023-03-25T04:25:43;1.23;;;0.40;;
3006;SDS011;1513;47.650;10.720;2023-03-25T04:28:17;0.40;;;0.40;;
3006;SDS011;1513;47.650;10.720;2023-03-25T04:30:43;2.80;;;0.60;;
3006;SDS011;1513;47.650;10.720;2023-03-25T04:33:10;0.60;;;0.57;;
3006;SDS011;1513;47.650;10.720;2023-03-25T04:35:37;1.43;;;0.73;;
3006;SDS011;1513;47.650;10.720;2023-03-25T04:38:05;1.57;;;0.60;;
3006;SDS011;1513;47.650;10.720;2023-03-25T04:40:31;0.90;;;0.80;;
3006;SDS011;1513;47.650;10.720;2023-03-25T04:42:58;1.50;;;0.43;;
3006;SDS011;1513;47.650;10.720;2023-03-25T04:45:24;0.50;;;0.50;;
3006;SDS011;1513;47.650;10.720;2023-03-25T04:47:52;0.87;;;0.60;;
3006;SDS011;1513;47.650;10.720;2023-03-25T04:52:46;0.90;;;0.60;;
3006;SDS011;1513;47.650;10.720;2023-03-25T04:55:13;3.00;;;0.40;;
3006;SDS011;1513;47.650;10.720;2023-03-25T04:57:49;1.77;;;0.60;;
3006;SDS011;1513;47.650;10.720;2023-03-25T05:00:17;0.60;;;0.60;;
3006;SDS011;1513;47.650;10.720;2023-03-25T05:02:52;0.70;;;0.40;;
3006;SDS011;1513;47.650;10.720;2023-03-25T05:05:20;1.03;;;0.60;;
3006;SDS011;1513;47.650;10.720;2023-03-25T05:07:48;1.60;;;0.50;;
3006;SDS011;1513;47.650;10.720;2023-03-25T05:10:18;3.03;;;0.60;;
3006;SDS011;1513;47.650;10.720;2023-03-25T05:12:46;0.50;;;0.40;;
3006;SDS011;1513;47.650;10.720;2023-03-25T05:15:13;0.63;;;0.40;;
3006;SDS011;1513;47.650;10.720;2023-03-25T05:17:41;1.03;;;0.50;;
3006;SDS011;1513;47.650;10.720;2023-03-25T05:20:08;1.57;;;0.40;;
3006;SDS011;1513;47.650;10.720;2023-03-25T05:22:36;0.87;;;0.30;;
3006;SDS011;1513;47.650;10.720;2023-03-25T05:25:06;0.40;;;0.40;;
3006;SDS011;1513;47.650;10.720;2023-03-25T05:27:33;0.50;;;0.40;;
3006;SDS011;1513;47.650;10.720;2023-03-25T05:30:00;1.57;;;1.10;;
3006;SDS011;1513;47.650;10.720;2023-03-25T05:32:27;2.10;;;1.30;;
3006;SDS011;1513;47.650;10.720;2023-03-25T05:34:57;0.50;;;0.43;;
3006;SDS011;1513;47.650;10.720;2023-03-25T05:37:24;1.27;;;0.50;;
3006;SDS011;1513;47.650;10.720;2023-03-25T05:39:51;0.50;;;0.50;;
3006;SDS011;1513;47.650;10.720;2023-03-25T05:42:17;0.40;;;0.40;;
3006;SDS011;1513;47.650;10.720;2023-03-25T05:44:50;0.70;;;0.50;;
3006;SDS011;1513;47.650;10.720;2023-03-25T05:47:21;1.13;;;0.30;;
3006;SDS011;1513;47.650;10.720;2023-03-25T05:49:48;0.40;;;0.33;;
3006;SDS011;1513;47.650;10.720;2023-03-25T05:52:15;0.43;;;0.33;;
3006;SDS011;1513;47.650;10.720;2023-03-25T05:54:43;0.40;;;0.30;;
3006;SDS011;1513;47.650;10.720;2023-03-25T05:57:10;0.50;;;0.30;;
3006;SDS011;1513;47.650;10.720;2023-03-25T05:59:37;2.43;;;0.40;;
3006;SDS011;1513;47.650;10.720;2023-03-25T06:02:11;0.37;;;0.30;;
3006;SDS011;1513;47.650;10.720;2023-03-25T06:04:39;0.40;;;0.30;;
3006;SDS011;1513;47.650;10.720;2023-03-25T06:07:11;0.40;;;0.30;;
3006;SDS011;1513;47.650;10.720;2023-03-25T06:09:44;0.70;;;0.30;;
3006;SDS011;1513;47.650;10.720;2023-03-25T06:12:12;0.73;;;0.50;;
3006;SDS011;1513;47.650;10.720;2023-03-25T06:14:39;1.47;;;0.30;;
3006;SDS011;1513;47.650;10.720;2023-03-25T06:17:10;0.87;;;0.30;;
3006;SDS011;1513;47.650;10.720;2023-03-25T06:19:39;0.37;;;0.30;;
3006;SDS011;1513;47.650;10.720;2023-03-25T06:22:06;0.30;;;0.30;;
3006;SDS011;1513;47.650;10.720;2023-03-25T06:24:34;0.40;;;0.30;;
3006;SDS011;1513;47.650;10.720;2023-03-25T06:27:02;0.50;;;0.30;;
3006;SDS011;1513;47.650;10.720;2023-03-25T06:29:35;0.40;;;0.30;;
3006;SDS011;1513;47.650;10.720;2023-03-25T06:32:02;0.30;;;0.20;;
3006;SDS011;1513;47.650;10.720;2023-03-25T06:34:29;0.30;;;0.30;;
3006;SDS011;1513;47.650;10.720;2023-03-25T06:36:59;0.30;;;0.20;;
3006;SDS011;1513;47.650;10.720;2023-03-25T06:39:26;0.33;;;0.30;;
3006;SDS011;1513;47.650;10.720;2023-03-25T06:41:57;0.40;;;0.20;;
3006;SDS011;1513;47.650;10.720;2023-03-25T06:44:32;0.40;;;0.30;;
3006;SDS011;1513;47.650;10.720;2023-03-25T06:47:30;0.40;;;0.30;;
3006;SDS011;1513;47.650;10.720;2023-03-25T06:49:56;0.30;;;0.30;;
3006;SDS011;1513;47.650;10.720;2023-03-25T06:52:23;0.30;;;0.20;;
3006;SDS011;1513;47.650;10.720;2023-03-25T06:54:49;0.30;;;0.20;;
3006;SDS011;1513;47.650;10.720;2023-03-25T06:57:15;0.40;;;0.40;;
3006;SDS011;1513;47.650;10.720;2023-03-25T06:59:41;0.30;;;0.30;;
3006;SDS011;1513;47.650;10.720;2023-03-25T07:02:09;0.50;;;0.30;;
3006;SDS011;1513;47.650;10.720;2023-03-25T07:04:37;0.30;;;0.20;;
3006;SDS011;1513;47.650;10.720;2023-03-25T07:07:04;0.37;;;0.30;;
3006;SDS011;1513;47.650;10.720;2023-03-25T07:09:30;0.93;;;0.60;;
3006;SDS011;1513;47.650;10.720;2023-03-25T07:11:56;0.40;;;0.40;;
3006;SDS011;1513;47.650;10.720;2023-03-25T07:14:22;0.90;;;0.30;;
3006;SDS011;1513;47.650;10.720;2023-03-25T07:16:49;0.57;;;0.30;;
3006;SDS011;1513;47.650;10.720;2023-03-25T07:19:15;3.07;;;0.60;;
3006;SDS011;1513;47.650;10.720;2023-03-25T07:21:41;0.30;;;0.30;;
3006;SDS011;1513;47.650;10.720;2023-03-25T07:24:07;2.23;;;1.17;;
3006;SDS011;1513;47.650;10.720;2023-03-25T07:26:34;0.40;;;0.40;;
3006;SDS011;1513;47.650;10.720;2023-03-25T07:29:00;1.17;;;0.43;;
3006;SDS011;1513;47.650;10.720;2023-03-25T07:31:27;0.47;;;0.40;;
3006;SDS011;1513;47.650;10.720;2023-03-25T07:33:54;0.40;;;0.33;;
3006;SDS011;1513;47.650;10.720;2023-03-25T07:36:21;0.70;;;0.70;;
3006;SDS011;1513;47.650;10.720;2023-03-25T07:38:51;2.30;;;1.43;;
3006;SDS011;1513;47.650;10.720;2023-03-25T07:41:18;0.50;;;0.43;;
3006;SDS011;1513;47.650;10.720;2023-03-25T07:44:13;8.97;;;3.73;;
3006;SDS011;1513;47.650;10.720;2023-03-25T07:46:41;1.00;;;0.90;;
3006;SDS011;1513;47.650;10.720;2023-03-25T07:49:08;3.17;;;1.20;;
3006;SDS011;1513;47.650;10.720;2023-03-25T07:51:34;0.80;;;0.80;;
3006;SDS011;1513;47.650;10.720;2023-03-25T07:54:02;0.60;;;0.60;;
3006;SDS011;1513;47.650;10.720;2023-03-25T07:56:29;0.60;;;0.60;;
3006;SDS011;1513;47.650;10.720;2023-03-25T07:58:55;1.00;;;0.50;;
3006;SDS011;1513;47.650;10.720;2023-03-25T08:01:21;0.30;;;0.30;;
3006;SDS011;1513;47.650;10.720;2023-03-25T08:03:48;0.40;;;0.40;;
3006;SDS011;1513;47.650;10.720;2023-03-25T08:06:14;0.43;;;0.30;;
3006;SDS011;1513;47.650;10.720;2023-03-25T08:08:40;0.40;;;0.30;;
3006;SDS011;1513;47.650;10.720;2023-03-25T08:11:07;0.30;;;0.30;;
3006;SDS011;1513;47.650;10.720;2023-03-25T08:13:33;1.40;;;0.30;;
3006;SDS011;1513;47.650;10.720;2023-03-25T08:15:59;0.40;;;0.30;;
3006;SDS011;1513;47.650;10.720;2023-03-25T08:18:26;0.40;;;0.30;;
3006;SDS011;1513;47.650;10.720;2023-03-25T08:20:52;0.40;;;0.40;;
3006;SDS011;1513;47.650;10.720;2023-03-25T08:23:19;0.33;;;0.30;;
3006;SDS011;1513;47.650;10.720;2023-03-25T08:25:47;0.40;;;0.30;;
3006;SDS011;1513;47.650;10.720;2023-03-25T08:28:14;0.57;;;0.43;;
3006;SDS011;1513;47.650;10.720;2023-03-25T08:30:42;0.40;;;0.30;;
3006;SDS011;1513;47.650;10.720;2023-03-25T08:33:08;0.90;;;0.47;;
3006;SDS011;1513;47.650;10.720;2023-03-25T08:35:35;0.40;;;0.37;;
3006;SDS011;1513;47.650;10.720;2023-03-25T08:38:02;0.60;;;0.50;;
3006;SDS011;1513;47.650;10.720;2023-03-25T08:40:34;1.73;;;0.37;;
3006;SDS011;1513;47.650;10.720;2023-03-25T08:43:03;0.47;;;0.40;;
3006;SDS011;1513;47.650;10.720;2023-03-25T08:45:31;0.80;;;0.70;;
3006;SDS011;1513;47.650;10.720;2023-03-25T08:47:59;1.07;;;0.70;;
3006;SDS011;1513;47.650;10.720;2023-03-25T08:50:26;0.63;;;0.50;;
3006;SDS011;1513;47.650;10.720;2023-03-25T08:52:52;0.40;;;0.40;;
3006;SDS011;1513;47.650;10.720;2023-03-25T08:55:22;0.80;;;0.70;;
3006;SDS011;1513;47.650;10.720;2023-03-25T08:57:48;1.07;;;0.53;;
3006;SDS011;1513;47.650;10.720;2023-03-25T09:00:15;3.13;;;0.50;;
3006;SDS011;1513;47.650;10.720;2023-03-25T09:02:43;1.47;;;0.40;;
3006;SDS011;1513;47.650;10.720;2023-03-25T09:05:10;5.30;;;0.50;;
3006;SDS011;1513;47.650;10.720;2023-03-25T09:07:37;1.10;;;0.83;;
3006;SDS011;1513;47.650;10.720;2023-03-25T09:10:04;2.40;;;0.90;;
3006;SDS011;1513;47.650;10.720;2023-03-25T09:12:31;1.23;;;0.40;;
3006;SDS011;1513;47.650;10.720;2023-03-25T09:14:58;0.50;;;0.50;;
3006;SDS011;1513;47.650;10.720;2023-03-25T09:17:24;1.07;;;0.60;;
3006;SDS011;1513;47.650;10.720;2023-03-25T09:19:51;2.67;;;0.93;;
3006;SDS011;1513;47.650;10.720;2023-03-25T09:22:17;0.40;;;0.40;;
3006;SDS011;1513;47.650;10.720;2023-03-25T09:24:44;0.67;;;0.40;;
3006;SDS011;1513;47.650;10.720;2023-03-25T09:27:10;0.50;;;0.40;;
3006;SDS011;1513;47.650;10.720;2023-03-25T09:29:37;1.77;;;0.90;;
3006;SDS011;1513;47.650;10.720;2023-03-25T09:32:03;0.80;;;0.50;;
3006;SDS011;1513;47.650;10.720;2023-03-25T09:34:29;1.10;;;0.40;;
3006;SDS011;1513;47.650;10.720;2023-03-25T09:36:56;2.20;;;0.60;;
3006;SDS011;1513;47.650;10.720;2023-03-25T09:39:22;0.70;;;0.70;;
3006;SDS011;1513;47.650;10.720;2023-03-25T09:42:00;2.10;;;0.40;;
3006;SDS011;1513;47.650;10.720;2023-03-25T09:47:13;2.80;;;0.53;;
3006;SDS011;1513;47.650;10.720;2023-03-25T09:49:41;3.47;;;1.23;;
3006;SDS011;1513;47.650;10.720;2023-03-25T09:52:12;2.10;;;1.43;;
3006;SDS011;1513;47.650;10.720;2023-03-25T09:54:46;1.97;;;0.90;;
3006;SDS011;1513;47.650;10.720;2023-03-25T09:57:17;0.67;;;0.40;;
3006;SDS011;1513;47.650;10.720;2023-03-25T09:59:47;3.90;;;1.27;;
3006;SDS011;1513;47.650;10.720;2023-03-25T10:02:22;0.70;;;0.53;;
3006;SDS011;1513;47.650;10.720;2023-03-25T10:21:19;1.43;;;1.33;;
3006;SDS011;1513;47.650;10.720;2023-03-25T10:26:29;1.13;;;1.00;;
3006;SDS011;1513;47.650;10.720;2023-03-25T10:29:13;1.70;;;1.57;;
3006;SDS011;1513;47.650;10.720;2023-03-25T10:31:49;5.33;;;3.97;;
3006;SDS011;1513;47.650;10.720;2023-03-25T10:34:18;7.87;;;5.00;;
3006;SDS011;1513;47.650;10.720;2023-03-25T10:36:53;2.27;;;2.07;;
3006;SDS011;1513;47.650;10.720;2023-03-25T10:39:23;0.80;;;0.80;;
3006;SDS011;1513;47.650;10.720;2023-03-25T10:42:44;1.40;;;1.30;;
3006;SDS011;1513;47.650;10.720;2023-03-25T10:44:49;2.17;;;1.87;;
3006;SDS011;1513;47.650;10.720;2023-03-25T10:47:16;1.10;;;0.97;;
3006;SDS011;1513;47.650;10.720;2023-03-25T10:49:45;3.00;;;2.60;;
3006;SDS011;1513;47.650;10.720;2023-03-25T10:52:13;1.20;;;0.57;;
3006;SDS011;1513;47.650;10.720;2023-03-25T10:54:40;3.83;;;2.60;;
3006;SDS011;1513;47.650;10.720;2023-03-25T10:57:09;1.30;;;1.20;;
3006;SDS011;1513;47.650;10.720;2023-03-25T11:02:22;1.93;;;1.80;;
3006;SDS011;1513;47.650;10.720;2023-03-25T11:04:52;2.67;;;2.33;;
3006;SDS011;1513;47.650;10.720;2023-03-25T11:07:36;1.37;;;0.43;;
3006;SDS011;1513;47.650;10.720;2023-03-25T11:12:39;3.93;;;2.90;;
3006;SDS011;1513;47.650;10.720;2023-03-25T11:15:13;2.57;;;1.70;;
3006;SDS011;1513;47.650;10.720;2023-03-25T11:17:42;4.20;;;3.67;;
3006;SDS011;1513;47.650;10.720;2023-03-25T11:20:17;1.67;;;1.10;;
3006;SDS011;1513;47.650;10.720;2023-03-25T11:22:46;0.43;;;0.43;;
3006;SDS011;1513;47.650;10.720;2023-03-25T11:25:24;0.70;;;0.70;;
3006;SDS011;1513;47.650;10.720;2023-03-25T11:27:55;1.43;;;1.00;;
3006;SDS011;1513;47.650;10.720;2023-03-25T11:30:24;0.60;;;0.60;;
3006;SDS011;1513;47.650;10.720;2023-03-25T11:35:30;0.83;;;0.37;;
3006;SDS011;1513;47.650;10.720;2023-03-25T11:37:59;0.63;;;0.63;;
3006;SDS011;1513;47.650;10.720;2023-03-25T11:40:27;0.93;;;0.40;;
3006;SDS011;1513;47.650;10.720;2023-03-25T11:42:54;0.40;;;0.30;;
3006;SDS011;1513;47.650;10.720;2023-03-25T11:45:23;1.00;;;0.57;;
3006;SDS011;1513;47.650;10.720;2023-03-25T11:47:52;1.33;;;0.40;;
3006;SDS011;1513;47.650;10.720;2023-03-25T11:50:24;1.30;;;0.80;;
3006;SDS011;1513;47.650;10.720;2023-03-25T11:52:55;1.10;;;1.00;;
3006;SDS011;1513;47.650;10.720;2023-03-25T11:55:25;1.20;;;1.20;;
3006;SDS011;1513;47.650;10.720;2023-03-25T11:57:54;2.10;;;2.00;;
3006;SDS011;1513;47.650;10.720;2023-03-25T12:03:05;2.40;;;2.20;;
3006;SDS011;1513;47.650;10.720;2023-03-25T12:05:38;3.13;;;1.50;;
3006;SDS011;1513;47.650;10.720;2023-03-25T12:08:12;1.73;;;1.30;;
3006;SDS011;1513;47.650;10.720;2023-03-25T12:10:51;4.03;;;1.80;;
3006;SDS011;1513;47.650;10.720;2023-03-25T12:16:06;2.20;;;2.10;;
3006;SDS011;1513;47.650;10.720;2023-03-25T12:24:26;1.40;;;1.30;;
3006;SDS011;1513;47.650;10.720;2023-03-25T12:29:46;3.33;;;2.70;;
3006;SDS011;1513;47.650;10.720;2023-03-25T12:40:37;10.40;;;3.73;;
3006;SDS011;1513;47.650;10.720;2023-03-25T13:04:30;9.73;;;3.63;;
3006;SDS011;1513;47.650;10.720;2023-03-25T13:07:31;3.97;;;2.13;;
3006;SDS011;1513;47.650;10.720;2023-03-25T13:12:58;13.27;;;5.80;;
3006;SDS011;1513;47.650;10.720;2023-03-25T13:18:01;4.73;;;3.30;;
3006;SDS011;1513;47.650;10.720;2023-03-25T13:20:29;4.73;;;2.73;;
3006;SDS011;1513;47.650;10.720;2023-03-25T13:22:58;11.33;;;5.70;;
3006;SDS011;1513;47.650;10.720;2023-03-25T13:25:39;6.47;;;3.93;;
3006;SDS011;1513;47.650;10.720;2023-03-25T13:28:16;12.97;;;7.07;;
3006;SDS011;1513;47.650;10.720;2023-03-25T13:30:47;9.90;;;6.10;;
3006;SDS011;1513;47.650;10.720;2023-03-25T13:33:25;10.00;;;6.10;;
3006;SDS011;1513;47.650;10.720;2023-03-25T13:35:58;11.63;;;6.20;;
3006;SDS011;1513;47.650;10.720;2023-03-25T13:38:33;13.50;;;7.77;;
3006;SDS011;1513;47.650;10.720;2023-03-25T13:41:17;15.60;;;7.63;;
3006;SDS011;1513;47.650;10.720;2023-03-25T13:46:30;4.50;;;3.00;;
3006;SDS011;1513;47.650;10.720;2023-03-25T13:49:11;8.53;;;3.80;;
3006;SDS011;1513;47.650;10.720;2023-03-25T13:51:41;3.23;;;2.50;;
3006;SDS011;1513;47.650;10.720;2023-03-25T13:56:51;0.90;;;0.90;;
3006;SDS011;1513;47.650;10.720;2023-03-25T14:02:33;1.83;;;1.30;;
3006;SDS011;1513;47.650;10.720;2023-03-25T14:10:58;10.67;;;6.30;;
3006;SDS011;1513;47.650;10.720;2023-03-25T14:13:37;3.80;;;2.83;;
3006;SDS011;1513;47.650;10.720;2023-03-25T14:16:10;3.50;;;2.40;;
3006;SDS011;1513;47.650;10.720;2023-03-25T14:18:41;1.67;;;1.57;;
3006;SDS011;1513;47.650;10.720;2023-03-25T14:23:39;1.43;;;1.33;;
3006;SDS011;1513;47.650;10.720;2023-03-25T14:26:06;1.93;;;1.83;;
3006;SDS011;1513;47.650;10.720;2023-03-25T14:28:40;3.90;;;1.23;;
3006;SDS011;1513;47.650;10.720;2023-03-25T14:39:10;1.43;;;1.30;;
3006;SDS011;1513;47.650;10.720;2023-03-25T14:44:41;2.20;;;1.30;;
3006;SDS011;1513;47.650;10.720;2023-03-25T14:50:11;5.43;;;2.60;;
3006;SDS011;1513;47.650;10.720;2023-03-25T14:53:02;11.93;;;5.77;;
3006;SDS011;1513;47.650;10.720;2023-03-25T14:58:19;1.93;;;1.20;;
3006;SDS011;1513;47.650;10.720;2023-03-25T15:00:57;2.10;;;1.17;;
3006;SDS011;1513;47.650;10.720;2023-03-25T15:03:35;2.90;;;1.00;;
3006;SDS011;1513;47.650;10.720;2023-03-25T15:06:08;1.20;;;1.10;;
3006;SDS011;1513;47.650;10.720;2023-03-25T15:08:56;0.60;;;0.60;;
3006;SDS011;1513;47.650;10.720;2023-03-25T15:11:31;2.53;;;1.17;;
3006;SDS011;1513;47.650;10.720;2023-03-25T15:13:59;4.80;;;1.23;;
3006;SDS011;1513;47.650;10.720;2023-03-25T15:16:35;1.33;;;1.00;;
3006;SDS011;1513;47.650;10.720;2023-03-25T15:19:10;1.40;;;1.27;;
3006;SDS011;1513;47.650;10.720;2023-03-25T15:24:46;2.23;;;1.20;;
3006;SDS011;1513;47.650;10.720;2023-03-25T15:27:35;1.43;;;1.10;;
3006;SDS011;1513;47.650;10.720;2023-03-25T15:33:21;1.30;;;1.07;;
3006;SDS011;1513;47.650;10.720;2023-03-25T15:47:03;1.40;;;1.27;;
3006;SDS011;1513;47.650;10.720;2023-03-25T15:55:12;0.60;;;0.60;;
3006;SDS011;1513;47.650;10.720;2023-03-25T16:02:49;0.70;;;0.63;;
3006;SDS011;1513;47.650;10.720;2023-03-25T16:05:24;0.60;;;0.60;;
3006;SDS011;1513;47.650;10.720;2023-03-25T16:07:51;3.07;;;1.37;;
3006;SDS011;1513;47.650;10.720;2023-03-25T16:10:19;3.50;;;1.70;;
3006;SDS011;1513;47.650;10.720;2023-03-25T16:12:55;2.10;;;1.83;;
3006;SDS011;1513;47.650;10.720;2023-03-25T16:15:24;1.17;;;1.00;;
3006;SDS011;1513;47.650;10.720;2023-03-25T16:17:52;1.40;;;1.30;;
3006;SDS011;1513;47.650;10.720;2023-03-25T16:20:23;7.60;;;3.57;;
3006;SDS011;1513;47.650;10.720;2023-03-25T16:22:51;1.00;;;1.00;;
3006;SDS011;1513;47.650;10.720;2023-03-25T16:25:21;33.63;;;13.50;;
3006;SDS011;1513;47.650;10.720;2023-03-25T16:27:53;3.03;;;1.97;;
3006;SDS011;1513;47.650;10.720;2023-03-25T16:30:24;1.43;;;0.77;;
3006;SDS011;1513;47.650;10.720;2023-03-25T16:35:37;1.10;;;0.67;;
3006;SDS011;1513;47.650;10.720;2023-03-25T16:38:17;0.50;;;0.40;;
3006;SDS011;1513;47.650;10.720;2023-03-25T16:40:46;0.50;;;0.37;;
3006;SDS011;1513;47.650;10.720;2023-03-25T16:43:18;1.33;;;0.50;;
3006;SDS011;1513;47.650;10.720;2023-03-25T16:45:48;1.53;;;0.40;;
3006;SDS011;1513;47.650;10.720;2023-03-25T16:48:26;1.03;;;0.50;;
3006;SDS011;1513;47.650;10.720;2023-03-25T16:50:56;0.60;;;0.60;;
3006;SDS011;1513;47.650;10.720;2023-03-25T16:53:37;0.60;;;0.60;;
3006;SDS011;1513;47.650;10.720;2023-03-25T16:58:33;0.73;;;0.57;;
3006;SDS011;1513;47.650;10.720;2023-03-25T17:01:01;0.90;;;0.60;;
3006;SDS011;1513;47.650;10.720;2023-03-25T17:03:37;0.50;;;0.40;;
3006;SDS011;1513;47.650;10.720;2023-03-25T17:08:50;1.83;;;0.80;;
3006;SDS011;1513;47.650;10.720;2023-03-25T17:11:18;1.17;;;0.90;;
3006;SDS011;1513;47.650;10.720;2023-03-25T17:13:48;1.43;;;0.80;;
3006;SDS011;1513;47.650;10.720;2023-03-25T17:16:19;1.63;;;1.30;;
3006;SDS011;1513;47.650;10.720;2023-03-25T17:18:46;11.83;;;3.87;;
3006;SDS011;1513;47.650;10.720;2023-03-25T17:21:27;16.77;;;6.60;;
3006;SDS011;1513;47.650;10.720;2023-03-25T17:23:56;17.90;;;9.03;;
3006;SDS011;1513;47.650;10.720;2023-03-25T17:26:32;15.70;;;6.67;;
3006;SDS011;1513;47.650;10.720;2023-03-25T17:29:00;9.13;;;4.67;;
3006;SDS011;1513;47.650;10.720;2023-03-25T17:31:36;11.00;;;5.37;;
3006;SDS011;1513;47.650;10.720;2023-03-25T17:36:44;18.77;;;8.27;;
3006;SDS011;1513;47.650;10.720;2023-03-25T17:41:56;15.33;;;7.77;;
3006;SDS011;1513;47.650;10.720;2023-03-25T17:44:58;18.80;;;8.50;;
3006;SDS011;1513;47.650;10.720;2023-03-25T17:47:18;39.53;;;14.00;;
3006;SDS011;1513;47.650;10.720;2023-03-25T17:49:45;21.33;;;8.50;;
3006;SDS011;1513;47.650;10.720;2023-03-25T17:52:11;20.40;;;7.53;;
3006;SDS011;1513;47.650;10.720;2023-03-25T17:54:38;10.90;;;5.53;;
3006;SDS011;1513;47.650;10.720;2023-03-25T17:57:08;6.27;;;3.27;;
3006;SDS011;1513;47.650;10.720;2023-03-25T17:59:41;2.00;;;1.77;;
3006;SDS011;1513;47.650;10.720;2023-03-25T18:02:09;1.90;;;1.53;;
3006;SDS011;1513;47.650;10.720;2023-03-25T18:04:39;1.73;;;1.50;;
3006;SDS011;1513;47.650;10.720;2023-03-25T18:07:05;2.97;;;1.37;;
3006;SDS011;1513;47.650;10.720;2023-03-25T18:09:32;2.73;;;1.23;;
3006;SDS011;1513;47.650;10.720;2023-03-25T18:11:59;3.80;;;2.50;;
3006;SDS011;1513;47.650;10.720;2023-03-25T18:14:26;3.97;;;1.63;;
3006;SDS011;1513;47.650;10.720;2023-03-25T18:16:52;3.93;;;1.70;;
3006;SDS011;1513;47.650;10.720;2023-03-25T18:19:23;8.00;;;2.43;;
3006;SDS011;1513;47.650;10.720;2023-03-25T18:21:51;3.27;;;2.07;;
3006;SDS011;1513;47.650;10.720;2023-03-25T18:24:19;7.17;;;2.33;;
3006;SDS011;1513;47.650;10.720;2023-03-25T18:26:46;4.77;;;2.50;;
3006;SDS011;1513;47.650;10.720;2023-03-25T18:29:17;6.40;;;1.50;;